^^
Saratoga-Weather Station Historical Data
Daily Summary for January 12, 2021 Units:  Both    English   Metric
Daily Weekly Monthly Yearly Custom
  High: Low: Average:
Temperature: 30 °F /  -1.1 °C 20.3 °F /  -6.5 °C 24.1 °F /  -4.4 °C
Dew Point: 18.7 °F /  -7.4 °C 16 °F /  -8.9 °C 17.2 °F /  -8.2 °C
Humidity: 85% 58% 75%
Wind Speed: 17mph /  27.4km/h - 3.4mph /  5.5km/h
Wind Gust: 26mph /  41.8km/h - -
Wind- - East
Pressure: 30.4 in /  1028.5 hPa 30.3 in /  1027.1 hPa -
Precipitation: 0 in /  0.0 mm    
Historical Graphs
 
 
Tabular Data for January 12, 2021
Time Temperature Dew Point Pressure Wind Wind Speed Wind Gust Humidity Rainfall Rate (Hourly) solar
00:03 21.9 °F /  -5.6 °C 17.1 °F /  -8.3 °C 30.4in /  1028.1hPa East 0.9mph /  1.4km/h 2mph /  3.2km/h 81% 0in /  0.0mm 0 W/m2
00:08 21.9 °F /  -5.6 °C 17.1 °F /  -8.3 °C 30.4in /  1028.1hPa Calm   2mph /  3.2km/h 81% 0in /  0.0mm 0 W/m2
00:13 21.9 °F /  -5.6 °C 17.1 °F /  -8.3 °C 30.4in /  1028.5hPa ESE 2.9mph /  4.7km/h 4mph /  6.4km/h 81% 0in /  0.0mm 0 W/m2
00:18 22.1 °F /  -5.5 °C 17.4 °F /  -8.1 °C 30.4in /  1028.1hPa East 0.9mph /  1.4km/h 2mph /  3.2km/h 82% 0in /  0.0mm 0 W/m2
00:23 22.3 °F /  -5.4 °C 17.4 °F /  -8.1 °C 30.4in /  1028.5hPa SE 0.9mph /  1.4km/h 3mph /  4.8km/h 81% 0in /  0.0mm 0 W/m2
00:28 22.3 °F /  -5.4 °C 17.4 °F /  -8.1 °C 30.4in /  1028.5hPa Calm   1mph /  1.6km/h 81% 0in /  0.0mm 0 W/m2
00:33 22.1 °F /  -5.5 °C 17.4 °F /  -8.1 °C 30.4in /  1028.5hPa Calm   3mph /  4.8km/h 82% 0in /  0.0mm 0 W/m2
00:38 22.1 °F /  -5.5 °C 17.4 °F /  -8.1 °C 30.4in /  1028.5hPa ESE 0.9mph /  1.4km/h 1mph /  1.6km/h 82% 0in /  0.0mm 0 W/m2
00:43 21.9 °F /  -5.6 °C 17.2 °F /  -8.2 °C 30.4in /  1028.5hPa Calm   1mph /  1.6km/h 82% 0in /  0.0mm 0 W/m2
00:48 21.7 °F /  -5.7 °C 17.1 °F /  -8.3 °C 30.4in /  1028.5hPa Calm   2mph /  3.2km/h 82% 0in /  0.0mm 0 W/m2
00:53 21.7 °F /  -5.7 °C 17.4 °F /  -8.1 °C 30.4in /  1028.5hPa ESE 0.9mph /  1.4km/h 3mph /  4.8km/h 83% 0in /  0.0mm 0 W/m2
00:58 21.7 °F /  -5.7 °C 17.4 °F /  -8.1 °C 30.4in /  1028.5hPa ESE 2mph /  3.2km/h 6mph /  9.7km/h 83% 0in /  0.0mm 0 W/m2
01:03 21.9 °F /  -5.6 °C 17.6 °F /  -8 °C 30.4in /  1028.5hPa East 2mph /  3.2km/h 2mph /  3.2km/h 83% 0in /  0.0mm 0 W/m2
01:08 21.9 °F /  -5.6 °C 17.6 °F /  -8 °C 30.4in /  1028.5hPa ESE 2mph /  3.2km/h 6mph /  9.7km/h 83% 0in /  0.0mm 0 W/m2
01:13 21.9 °F /  -5.6 °C 17.6 °F /  -8 °C 30.4in /  1028.5hPa ENE 0.9mph /  1.4km/h 2mph /  3.2km/h 83% 0in /  0.0mm 0 W/m2
01:18 21.9 °F /  -5.6 °C 17.6 °F /  -8 °C 30.4in /  1028.5hPa ESE 0.9mph /  1.4km/h 3mph /  4.8km/h 83% 0in /  0.0mm 0 W/m2
01:23 21.9 °F /  -5.6 °C 17.6 °F /  -8 °C 30.4in /  1028.5hPa ESE 2.9mph /  4.7km/h 7mph /  11.3km/h 83% 0in /  0.0mm 0 W/m2
01:28 22.1 °F /  -5.5 °C 17.8 °F /  -7.9 °C 30.4in /  1028.1hPa ENE 2mph /  3.2km/h 4mph /  6.4km/h 83% 0in /  0.0mm 0 W/m2
01:33 22.3 °F /  -5.4 °C 18 °F /  -7.8 °C 30.4in /  1028.1hPa East 0.9mph /  1.4km/h 7mph /  11.3km/h 83% 0in /  0.0mm 0 W/m2
01:38 22.1 °F /  -5.5 °C 17.8 °F /  -7.9 °C 30.4in /  1028.1hPa ESE 2mph /  3.2km/h 2mph /  3.2km/h 83% 0in /  0.0mm 0 W/m2
01:43 22.1 °F /  -5.5 °C 18 °F /  -7.8 °C 30.4in /  1028.1hPa East 2mph /  3.2km/h 4mph /  6.4km/h 84% 0in /  0.0mm 0 W/m2
01:48 22.1 °F /  -5.5 °C 17.8 °F /  -7.9 °C 30.4in /  1028.1hPa Calm   4mph /  6.4km/h 83% 0in /  0.0mm 0 W/m2
01:53 21.9 °F /  -5.6 °C 17.8 °F /  -7.9 °C 30.4in /  1028.1hPa East 0.9mph /  1.4km/h 3mph /  4.8km/h 84% 0in /  0.0mm 0 W/m2
01:58 21.9 °F /  -5.6 °C 17.8 °F /  -7.9 °C 30.4in /  1028.1hPa ESE 0.9mph /  1.4km/h 3mph /  4.8km/h 84% 0in /  0.0mm 0 W/m2
02:03 21.9 °F /  -5.6 °C 17.8 °F /  -7.9 °C 30.4in /  1028.1hPa ESE 2mph /  3.2km/h 3mph /  4.8km/h 84% 0in /  0.0mm 0 W/m2
02:08 21.9 °F /  -5.6 °C 17.8 °F /  -7.9 °C 30.4in /  1028.5hPa Calm   2mph /  3.2km/h 84% 0in /  0.0mm 0 W/m2
02:13 21.9 °F /  -5.6 °C 17.8 °F /  -7.9 °C 30.4in /  1028.5hPa ENE 2.9mph /  4.7km/h 3mph /  4.8km/h 84% 0in /  0.0mm 0 W/m2
02:18 21.9 °F /  -5.6 °C 17.8 °F /  -7.9 °C 30.4in /  1028.5hPa East 0.9mph /  1.4km/h 2mph /  3.2km/h 84% 0in /  0.0mm 0 W/m2
02:23 21.9 °F /  -5.6 °C 17.8 °F /  -7.9 °C 30.4in /  1028.5hPa Calm   1mph /  1.6km/h 84% 0in /  0.0mm 0 W/m2
02:28 21.7 °F /  -5.7 °C 17.6 °F /  -8 °C 30.4in /  1028.5hPa SE 0.9mph /  1.4km/h 2mph /  3.2km/h 84% 0in /  0.0mm 0 W/m2
02:33 21.7 °F /  -5.7 °C 17.6 °F /  -8 °C 30.4in /  1028.5hPa Calm   2mph /  3.2km/h 84% 0in /  0.0mm 0 W/m2
02:38 21.6 °F /  -5.8 °C 17.8 °F /  -7.9 °C 30.4in /  1028.5hPa ESE 2mph /  3.2km/h 4mph /  6.4km/h 85% 0in /  0.0mm 0 W/m2
02:43 21.7 °F /  -5.7 °C 18 °F /  -7.8 °C 30.4in /  1028.5hPa ESE 2.9mph /  4.7km/h 4mph /  6.4km/h 85% 0in /  0.0mm 0 W/m2
02:48 21.7 °F /  -5.7 °C 18 °F /  -7.8 °C 30.4in /  1028.5hPa Calm   2mph /  3.2km/h 85% 0in /  0.0mm 0 W/m2
02:53 21.7 °F /  -5.7 °C 17.6 °F /  -8 °C 30.4in /  1028.5hPa East 4mph /  6.4km/h 5mph /  8km/h 84% 0in /  0.0mm 0 W/m2
02:58 21.7 °F /  -5.7 °C 17.6 °F /  -8 °C 30.4in /  1028.5hPa ESE 0.9mph /  1.4km/h 2mph /  3.2km/h 84% 0in /  0.0mm 0 W/m2
03:03 21.7 °F /  -5.7 °C 17.6 °F /  -8 °C 30.4in /  1028.1hPa ENE 0.9mph /  1.4km/h 3mph /  4.8km/h 84% 0in /  0.0mm 0 W/m2
03:08 21.7 °F /  -5.7 °C 17.6 °F /  -8 °C 30.4in /  1028.1hPa East 0.9mph /  1.4km/h 2mph /  3.2km/h 84% 0in /  0.0mm 0 W/m2
03:13 21.7 °F /  -5.7 °C 17.6 °F /  -8 °C 30.4in /  1028.1hPa Calm   2mph /  3.2km/h 84% 0in /  0.0mm 0 W/m2
03:18 21.6 °F /  -5.8 °C 17.4 °F /  -8.1 °C 30.4in /  1028.1hPa East 0.9mph /  1.4km/h 2mph /  3.2km/h 84% 0in /  0.0mm 0 W/m2
03:23 21.6 °F /  -5.8 °C 17.4 °F /  -8.1 °C 30.4in /  1028.1hPa ESE 0.9mph /  1.4km/h 3mph /  4.8km/h 84% 0in /  0.0mm 0 W/m2
03:28 21.6 °F /  -5.8 °C 17.4 °F /  -8.1 °C 30.4in /  1028.1hPa NE 0.9mph /  1.4km/h 2mph /  3.2km/h 84% 0in /  0.0mm 0 W/m2
03:33 21.4 °F /  -5.9 °C 17.2 °F /  -8.2 °C 30.4in /  1028.1hPa Calm   1mph /  1.6km/h 84% 0in /  0.0mm 0 W/m2
03:38 21.4 °F /  -5.9 °C 17.2 °F /  -8.2 °C 30.4in /  1027.8hPa ESE 2mph /  3.2km/h 3mph /  4.8km/h 84% 0in /  0.0mm 0 W/m2
03:43 21.4 °F /  -5.9 °C 17.2 °F /  -8.2 °C 30.4in /  1027.8hPa ESE 2mph /  3.2km/h 4mph /  6.4km/h 84% 0in /  0.0mm 0 W/m2
03:48 21.6 °F /  -5.8 °C 17.8 °F /  -7.9 °C 30.4in /  1027.8hPa ENE 4mph /  6.4km/h 6mph /  9.7km/h 85% 0in /  0.0mm 0 W/m2
03:53 21.6 °F /  -5.8 °C 17.4 °F /  -8.1 °C 30.4in /  1027.8hPa ESE 4mph /  6.4km/h 6mph /  9.7km/h 84% 0in /  0.0mm 0 W/m2
03:58 21.6 °F /  -5.8 °C 17.4 °F /  -8.1 °C 30.4in /  1027.8hPa ENE 2mph /  3.2km/h 5mph /  8km/h 84% 0in /  0.0mm 0 W/m2
04:03 21.6 °F /  -5.8 °C 17.4 °F /  -8.1 °C 30.4in /  1027.8hPa NE 2mph /  3.2km/h 4mph /  6.4km/h 84% 0in /  0.0mm 0 W/m2
04:08 21.6 °F /  -5.8 °C 17.4 °F /  -8.1 °C 30.4in /  1027.8hPa East 4mph /  6.4km/h 4mph /  6.4km/h 84% 0in /  0.0mm 0 W/m2
04:13 21.6 °F /  -5.8 °C 17.4 °F /  -8.1 °C 30.4in /  1027.8hPa ESE 0.9mph /  1.4km/h 3mph /  4.8km/h 84% 0in /  0.0mm 0 W/m2
04:18 21.6 °F /  -5.8 °C 17.4 °F /  -8.1 °C 30.3in /  1027.4hPa ENE 2mph /  3.2km/h 4mph /  6.4km/h 84% 0in /  0.0mm 0 W/m2
04:23 21.6 °F /  -5.8 °C 17.4 °F /  -8.1 °C 30.3in /  1027.4hPa Calm   4mph /  6.4km/h 84% 0in /  0.0mm 0 W/m2
04:28 21.6 °F /  -5.8 °C 17.4 °F /  -8.1 °C 30.3in /  1027.4hPa ESE 2mph /  3.2km/h 4mph /  6.4km/h 84% 0in /  0.0mm 0 W/m2
04:33 21.6 °F /  -5.8 °C 17.2 °F /  -8.2 °C 30.4in /  1027.8hPa ENE 2mph /  3.2km/h 5mph /  8km/h 83% 0in /  0.0mm 0 W/m2
04:38 21.4 °F /  -5.9 °C 17.1 °F /  -8.3 °C 30.3in /  1027.4hPa ESE 0.9mph /  1.4km/h 3mph /  4.8km/h 83% 0in /  0.0mm 0 W/m2
04:43 21.4 °F /  -5.9 °C 17.1 °F /  -8.3 °C 30.3in /  1027.4hPa NE 4mph /  6.4km/h 7mph /  11.3km/h 83% 0in /  0.0mm 0 W/m2
04:48 21.4 °F /  -5.9 °C 17.1 °F /  -8.3 °C 30.4in /  1027.8hPa Calm   3mph /  4.8km/h 83% 0in /  0.0mm 0 W/m2
04:53 21.4 °F /  -5.9 °C 17.1 °F /  -8.3 °C 30.4in /  1027.8hPa ESE 2mph /  3.2km/h 7mph /  11.3km/h 83% 0in /  0.0mm 0 W/m2
04:58 21.4 °F /  -5.9 °C 17.1 °F /  -8.3 °C 30.4in /  1027.8hPa East 2mph /  3.2km/h 6mph /  9.7km/h 83% 0in /  0.0mm 0 W/m2
05:03 21.4 °F /  -5.9 °C 17.1 °F /  -8.3 °C 30.4in /  1027.8hPa ESE 2mph /  3.2km/h 4mph /  6.4km/h 83% 0in /  0.0mm 0 W/m2
05:08 21.4 °F /  -5.9 °C 17.1 °F /  -8.3 °C 30.3in /  1027.4hPa ESE 4mph /  6.4km/h 4mph /  6.4km/h 83% 0in /  0.0mm 0 W/m2
05:13 21.4 °F /  -5.9 °C 17.1 °F /  -8.3 °C 30.3in /  1027.4hPa East 2.9mph /  4.7km/h 3mph /  4.8km/h 83% 0in /  0.0mm 0 W/m2
05:18 21.4 °F /  -5.9 °C 17.1 °F /  -8.3 °C 30.3in /  1027.4hPa ESE 2.9mph /  4.7km/h 6mph /  9.7km/h 83% 0in /  0.0mm 0 W/m2
05:23 21.4 °F /  -5.9 °C 17.1 °F /  -8.3 °C 30.4in /  1027.8hPa ENE 2.9mph /  4.7km/h 3mph /  4.8km/h 83% 0in /  0.0mm 0 W/m2
05:28 21.4 °F /  -5.9 °C 17.1 °F /  -8.3 °C 30.4in /  1027.8hPa ENE 6mph /  9.7km/h 7mph /  11.3km/h 83% 0in /  0.0mm 0 W/m2
05:33 21.4 °F /  -5.9 °C 17.2 °F /  -8.2 °C 30.4in /  1027.8hPa ENE 2mph /  3.2km/h 6mph /  9.7km/h 84% 0in /  0.0mm 0 W/m2
05:38 21.4 °F /  -5.9 °C 17.2 °F /  -8.2 °C 30.4in /  1027.8hPa ENE 0.9mph /  1.4km/h 6mph /  9.7km/h 84% 0in /  0.0mm 0 W/m2
05:43 21.2 °F /  -6 °C 17.1 °F /  -8.3 °C 30.4in /  1027.8hPa SE 2mph /  3.2km/h 3mph /  4.8km/h 84% 0in /  0.0mm 0 W/m2
05:48 21.2 °F /  -6 °C 17.1 °F /  -8.3 °C 30.4in /  1027.8hPa East 2.9mph /  4.7km/h 6mph /  9.7km/h 84% 0in /  0.0mm 0 W/m2
05:53 21 °F /  -6.1 °C 16.9 °F /  -8.4 °C 30.4in /  1027.8hPa NE 0.9mph /  1.4km/h 4mph /  6.4km/h 84% 0in /  0.0mm 0 W/m2
05:58 21 °F /  -6.1 °C 16.9 °F /  -8.4 °C 30.3in /  1027.4hPa East 6mph /  9.7km/h 6mph /  9.7km/h 84% 0in /  0.0mm 0 W/m2
06:03 21 °F /  -6.1 °C 16.9 °F /  -8.4 °C 30.3in /  1027.4hPa ENE 2mph /  3.2km/h 6mph /  9.7km/h 84% 0in /  0.0mm 0 W/m2
06:08 21 °F /  -6.1 °C 16.9 °F /  -8.4 °C 30.3in /  1027.4hPa East 2mph /  3.2km/h 3mph /  4.8km/h 84% 0in /  0.0mm 0 W/m2
06:13 20.8 °F /  -6.2 °C 16.7 °F /  -8.5 °C 30.3in /  1027.4hPa ESE 2mph /  3.2km/h 6mph /  9.7km/h 84% 0in /  0.0mm 0 W/m2
06:18 20.8 °F /  -6.2 °C 16.7 °F /  -8.5 °C 30.3in /  1027.4hPa East 2mph /  3.2km/h 3mph /  4.8km/h 84% 0in /  0.0mm 0 W/m2
06:23 20.8 °F /  -6.2 °C 16.7 °F /  -8.5 °C 30.3in /  1027.4hPa ESE 2mph /  3.2km/h 3mph /  4.8km/h 84% 0in /  0.0mm 0 W/m2
06:28 20.8 °F /  -6.2 °C 16.7 °F /  -8.5 °C 30.3in /  1027.4hPa Calm   6mph /  9.7km/h 84% 0in /  0.0mm 0 W/m2
06:33 20.8 °F /  -6.2 °C 16.7 °F /  -8.5 °C 30.3in /  1027.4hPa ENE 0.9mph /  1.4km/h 4mph /  6.4km/h 84% 0in /  0.0mm 0 W/m2
06:38 20.7 °F /  -6.3 °C 16.5 °F /  -8.6 °C 30.3in /  1027.4hPa ENE 0.9mph /  1.4km/h 6mph /  9.7km/h 84% 0in /  0.0mm 0 W/m2
06:43 20.7 °F /  -6.3 °C 16.5 °F /  -8.6 °C 30.3in /  1027.4hPa Calm   4mph /  6.4km/h 84% 0in /  0.0mm 0 W/m2
06:48 20.7 °F /  -6.3 °C 16.5 °F /  -8.6 °C 30.3in /  1027.4hPa SE 2.9mph /  4.7km/h 3mph /  4.8km/h 84% 0in /  0.0mm 0 W/m2
06:53 20.7 °F /  -6.3 °C 16.5 °F /  -8.6 °C 30.3in /  1027.4hPa ESE 0.9mph /  1.4km/h 4mph /  6.4km/h 84% 0in /  0.0mm 0 W/m2
06:59 20.7 °F /  -6.3 °C 16.5 °F /  -8.6 °C 30.3in /  1027.4hPa East 0.9mph /  1.4km/h 4mph /  6.4km/h 84% 0in /  0.0mm 0 W/m2
07:04 20.7 °F /  -6.3 °C 16.5 °F /  -8.6 °C 30.3in /  1027.4hPa ESE 0.9mph /  1.4km/h 2mph /  3.2km/h 84% 0in /  0.0mm 0 W/m2
07:09 20.7 °F /  -6.3 °C 16.5 °F /  -8.6 °C 30.3in /  1027.4hPa ENE 0.9mph /  1.4km/h 6mph /  9.7km/h 84% 0in /  0.0mm 0 W/m2
07:14 20.7 °F /  -6.3 °C 16.5 °F /  -8.6 °C 30.3in /  1027.4hPa ESE 2mph /  3.2km/h 4mph /  6.4km/h 84% 0in /  0.0mm 0 W/m2
07:19 20.5 °F /  -6.4 °C 16.3 °F /  -8.7 °C 30.4in /  1027.8hPa East 0.9mph /  1.4km/h 4mph /  6.4km/h 84% 0in /  0.0mm 0 W/m2
07:24 20.5 °F /  -6.4 °C 16.3 °F /  -8.7 °C 30.3in /  1027.4hPa ENE 2mph /  3.2km/h 2mph /  3.2km/h 84% 0in /  0.0mm 0 W/m2
07:29 20.5 °F /  -6.4 °C 16.3 °F /  -8.7 °C 30.4in /  1027.8hPa NE 4mph /  6.4km/h 4mph /  6.4km/h 84% 0in /  0.0mm 0 W/m2
07:34 20.3 °F /  -6.5 °C 16.2 °F /  -8.8 °C 30.4in /  1027.8hPa ESE 2mph /  3.2km/h 2mph /  3.2km/h 84% 0in /  0.0mm 0 W/m2
07:39 20.3 °F /  -6.5 °C 16.2 °F /  -8.8 °C 30.4in /  1027.8hPa ESE 2mph /  3.2km/h 4mph /  6.4km/h 84% 0in /  0.0mm 0 W/m2
07:44 20.5 °F /  -6.4 °C 16.3 °F /  -8.7 °C 30.4in /  1027.8hPa SE 0.9mph /  1.4km/h 3mph /  4.8km/h 84% 0in /  0.0mm 0 W/m2
07:49 20.5 °F /  -6.4 °C 16.2 °F /  -8.8 °C 30.4in /  1027.8hPa East 0.9mph /  1.4km/h 4mph /  6.4km/h 83% 0in /  0.0mm 5 W/m2
07:54 20.5 °F /  -6.4 °C 16.2 °F /  -8.8 °C 30.4in /  1027.8hPa East 2.9mph /  4.7km/h 3mph /  4.8km/h 83% 0in /  0.0mm 7 W/m2
07:59 20.5 °F /  -6.4 °C 16.2 °F /  -8.8 °C 30.4in /  1027.8hPa ESE 4mph /  6.4km/h 4mph /  6.4km/h 83% 0in /  0.0mm 11 W/m2
08:04 20.5 °F /  -6.4 °C 16.2 °F /  -8.8 °C 30.4in /  1027.8hPa ESE 2mph /  3.2km/h 4mph /  6.4km/h 83% 0in /  0.0mm 12 W/m2
08:09 20.5 °F /  -6.4 °C 16.2 °F /  -8.8 °C 30.4in /  1027.8hPa East 0.9mph /  1.4km/h 3mph /  4.8km/h 83% 0in /  0.0mm 14 W/m2
08:14 20.5 °F /  -6.4 °C 16.2 °F /  -8.8 °C 30.4in /  1028.1hPa ESE 4mph /  6.4km/h 5mph /  8km/h 83% 0in /  0.0mm 14 W/m2
08:19 20.7 °F /  -6.3 °C 16.3 °F /  -8.7 °C 30.4in /  1028.1hPa ESE 2mph /  3.2km/h 3mph /  4.8km/h 83% 0in /  0.0mm 14 W/m2
08:24 20.7 °F /  -6.3 °C 16 °F /  -8.9 °C 30.4in /  1028.1hPa ENE 2mph /  3.2km/h 7mph /  11.3km/h 82% 0in /  0.0mm 14 W/m2
08:29 20.7 °F /  -6.3 °C 16 °F /  -8.9 °C 30.4in /  1027.8hPa ENE 0.9mph /  1.4km/h 5mph /  8km/h 82% 0in /  0.0mm 18 W/m2
08:34 20.8 °F /  -6.2 °C 16.2 °F /  -8.8 °C 30.4in /  1027.8hPa ENE 2.9mph /  4.7km/h 5mph /  8km/h 82% 0in /  0.0mm 23 W/m2
08:39 20.8 °F /  -6.2 °C 16.2 °F /  -8.8 °C 30.4in /  1027.8hPa NE 6.9mph /  11.1km/h 9mph /  14.5km/h 82% 0in /  0.0mm 40 W/m2
08:44 21 °F /  -6.1 °C 16.2 °F /  -8.8 °C 30.4in /  1027.8hPa Calm   4mph /  6.4km/h 81% 0in /  0.0mm 51 W/m2
08:49 21 °F /  -6.1 °C 16.2 °F /  -8.8 °C 30.4in /  1027.8hPa ENE 2mph /  3.2km/h 9mph /  14.5km/h 81% 0in /  0.0mm 33 W/m2
08:54 21.4 °F /  -5.9 °C 16.5 °F /  -8.6 °C 30.4in /  1027.8hPa ESE 2mph /  3.2km/h 4mph /  6.4km/h 81% 0in /  0.0mm 35 W/m2
08:59 21.6 °F /  -5.8 °C 16.3 °F /  -8.7 °C 30.4in /  1027.8hPa East 6mph /  9.7km/h 7mph /  11.3km/h 80% 0in /  0.0mm 35 W/m2
09:04 21.6 °F /  -5.8 °C 16.3 °F /  -8.7 °C 30.4in /  1027.8hPa ESE 0.9mph /  1.4km/h 6mph /  9.7km/h 80% 0in /  0.0mm 30 W/m2
09:09 21.7 °F /  -5.7 °C 16.5 °F /  -8.6 °C 30.4in /  1027.8hPa SE 4.9mph /  7.9km/h 9mph /  14.5km/h 80% 0in /  0.0mm 35 W/m2
09:14 21.7 °F /  -5.7 °C 16.5 °F /  -8.6 °C 30.4in /  1027.8hPa Calm   7mph /  11.3km/h 80% 0in /  0.0mm 35 W/m2
09:19 21.7 °F /  -5.7 °C 16.5 °F /  -8.6 °C 30.4in /  1027.8hPa NE 2mph /  3.2km/h 8mph /  12.9km/h 80% 0in /  0.0mm 63 W/m2
09:24 21.9 °F /  -5.6 °C 16.3 °F /  -8.7 °C 30.4in /  1027.8hPa ESE 4mph /  6.4km/h 7mph /  11.3km/h 79% 0in /  0.0mm 134 W/m2
09:29 22.5 °F /  -5.3 °C 16.7 °F /  -8.5 °C 30.4in /  1027.8hPa ENE 4.9mph /  7.9km/h 10mph /  16.1km/h 78% 0in /  0.0mm 174 W/m2
09:34 22.8 °F /  -5.1 °C 17.1 °F /  -8.3 °C 30.4in /  1027.8hPa ENE 2mph /  3.2km/h 7mph /  11.3km/h 78% 0in /  0.0mm 193 W/m2
09:39 23.2 °F /  -4.9 °C 17.1 °F /  -8.3 °C 30.4in /  1027.8hPa Calm   8mph /  12.9km/h 77% 0in /  0.0mm 192 W/m2
09:44 23.2 °F /  -4.9 °C 16.7 °F /  -8.5 °C 30.4in /  1027.8hPa NE 2mph /  3.2km/h 9mph /  14.5km/h 76% 0in /  0.0mm 141 W/m2
09:49 23.4 °F /  -4.8 °C 16.7 °F /  -8.5 °C 30.4in /  1027.8hPa ENE 2mph /  3.2km/h 10mph /  16.1km/h 75% 0in /  0.0mm 151 W/m2
09:54 23.5 °F /  -4.7 °C 16.7 °F /  -8.5 °C 30.3in /  1027.4hPa East 4mph /  6.4km/h 10mph /  16.1km/h 75% 0in /  0.0mm 165 W/m2
09:59 23.7 °F /  -4.6 °C 16.7 °F /  -8.5 °C 30.3in /  1027.4hPa East 6.9mph /  11.1km/h 11mph /  17.7km/h 74% 0in /  0.0mm 204 W/m2
10:04 24.1 °F /  -4.4 °C 17.1 °F /  -8.3 °C 30.3in /  1027.4hPa NE 6mph /  9.7km/h 10mph /  16.1km/h 74% 0in /  0.0mm 204 W/m2
10:09 24.3 °F /  -4.3 °C 16.9 °F /  -8.4 °C 30.3in /  1027.4hPa ESE 4mph /  6.4km/h 12mph /  19.3km/h 73% 0in /  0.0mm 200 W/m2
10:14 24.4 °F /  -4.2 °C 16.7 °F /  -8.5 °C 30.3in /  1027.4hPa SE 4.9mph /  7.9km/h 9mph /  14.5km/h 72% 0in /  0.0mm 167 W/m2
10:19 24.6 °F /  -4.1 °C 16.5 °F /  -8.6 °C 30.3in /  1027.4hPa ENE 4.9mph /  7.9km/h 11mph /  17.7km/h 71% 0in /  0.0mm 141 W/m2
10:24 24.6 °F /  -4.1 °C 16.5 °F /  -8.6 °C 30.3in /  1027.4hPa East 6.9mph /  11.1km/h 12mph /  19.3km/h 71% 0in /  0.0mm 123 W/m2
10:29 24.8 °F /  -4 °C 16.7 °F /  -8.5 °C 30.3in /  1027.4hPa ESE 6.9mph /  11.1km/h 9mph /  14.5km/h 71% 0in /  0.0mm 149 W/m2
10:34 25.2 °F /  -3.8 °C 16.7 °F /  -8.5 °C 30.3in /  1027.4hPa NE 2mph /  3.2km/h 10mph /  16.1km/h 70% 0in /  0.0mm 144 W/m2
10:39 25.3 °F /  -3.7 °C 16.5 °F /  -8.6 °C 30.3in /  1027.4hPa NE 6mph /  9.7km/h 8mph /  12.9km/h 69% 0in /  0.0mm 88 W/m2
10:44 25.7 °F /  -3.5 °C 16.9 °F /  -8.4 °C 30.3in /  1027.4hPa ESE 8.9mph /  14.3km/h 11mph /  17.7km/h 69% 0in /  0.0mm 84 W/m2
10:49 25.7 °F /  -3.5 °C 16.5 °F /  -8.6 °C 30.3in /  1027.4hPa ENE 6.9mph /  11.1km/h 10mph /  16.1km/h 68% 0in /  0.0mm 72 W/m2
10:54 26.1 °F /  -3.3 °C 16.9 °F /  -8.4 °C 30.3in /  1027.4hPa ENE 2.9mph /  4.7km/h 8mph /  12.9km/h 68% 0in /  0.0mm 102 W/m2
10:59 26.2 °F /  -3.2 °C 16.7 °F /  -8.5 °C 30.3in /  1027.4hPa North 2.9mph /  4.7km/h 10mph /  16.1km/h 67% 0in /  0.0mm 135 W/m2
11:04 26.6 °F /  -3 °C 16.7 °F /  -8.5 °C 30.3in /  1027.4hPa ESE 4mph /  6.4km/h 15mph /  24.1km/h 66% 0in /  0.0mm 165 W/m2
11:09 26.8 °F /  -2.9 °C 16.5 °F /  -8.6 °C 30.3in /  1027.4hPa East 12.1mph /  19.5km/h 17mph /  27.4km/h 65% 0in /  0.0mm 113 W/m2
11:14 27 °F /  -2.8 °C 16.7 °F /  -8.5 °C 30.3in /  1027.4hPa ESE 4mph /  6.4km/h 9mph /  14.5km/h 65% 0in /  0.0mm 77 W/m2
11:19 27 °F /  -2.8 °C 17.1 °F /  -8.3 °C 30.3in /  1027.4hPa East 17mph /  27.4km/h 17mph /  27.4km/h 66% 0in /  0.0mm 81 W/m2
11:25 27.1 °F /  -2.7 °C 16.9 °F /  -8.4 °C 30.4in /  1027.8hPa ESE 8.1mph /  13km/h 11mph /  17.7km/h 65% 0in /  0.0mm 98 W/m2
11:30 27.3 °F /  -2.6 °C 17.1 °F /  -8.3 °C 30.3in /  1027.4hPa NNW 2.9mph /  4.7km/h 12mph /  19.3km/h 65% 0in /  0.0mm 97 W/m2
11:35 27.7 °F /  -2.4 °C 17.1 °F /  -8.3 °C 30.4in /  1027.8hPa ESE 8.1mph /  13km/h 12mph /  19.3km/h 64% 0in /  0.0mm 113 W/m2
11:40 27.7 °F /  -2.4 °C 17.4 °F /  -8.1 °C 30.4in /  1027.8hPa SE 6.9mph /  11.1km/h 9mph /  14.5km/h 65% 0in /  0.0mm 100 W/m2
11:45 27.9 °F /  -2.3 °C 17.2 °F /  -8.2 °C 30.3in /  1027.4hPa East 6.9mph /  11.1km/h 9mph /  14.5km/h 64% 0in /  0.0mm 128 W/m2
11:50 27.9 °F /  -2.3 °C 17.2 °F /  -8.2 °C 30.3in /  1027.4hPa ESE 4mph /  6.4km/h 12mph /  19.3km/h 64% 0in /  0.0mm 107 W/m2
11:55 27.9 °F /  -2.3 °C 16.9 °F /  -8.4 °C 30.4in /  1027.8hPa East 6.9mph /  11.1km/h 11mph /  17.7km/h 63% 0in /  0.0mm 72 W/m2
12:00 27.9 °F /  -2.3 °C 16.9 °F /  -8.4 °C 30.4in /  1027.8hPa East 4.9mph /  7.9km/h 9mph /  14.5km/h 63% 0in /  0.0mm 105 W/m2
12:05 28 °F /  -2.2 °C 17.1 °F /  -8.3 °C 30.3in /  1027.4hPa ENE 2mph /  3.2km/h 10mph /  16.1km/h 63% 0in /  0.0mm 188 W/m2
12:10 28.2 °F /  -2.1 °C 17.2 °F /  -8.2 °C 30.4in /  1027.8hPa ENE 6mph /  9.7km/h 10mph /  16.1km/h 63% 0in /  0.0mm 250 W/m2
12:15 28.4 °F /  -2 °C 16.7 °F /  -8.5 °C 30.3in /  1027.4hPa SE 12.1mph /  19.5km/h 12mph /  19.3km/h 61% 0in /  0.0mm 251 W/m2
12:20 28.4 °F /  -2 °C 16.7 °F /  -8.5 °C 30.3in /  1027.4hPa NE 6.9mph /  11.1km/h 13mph /  20.9km/h 61% 0in /  0.0mm 388 W/m2
12:25 28.8 °F /  -1.8 °C 17.1 °F /  -8.3 °C 30.3in /  1027.4hPa NE 6.9mph /  11.1km/h 11mph /  17.7km/h 61% 0in /  0.0mm 279 W/m2
12:30 28.6 °F /  -1.9 °C 16.5 °F /  -8.6 °C 30.3in /  1027.4hPa East 4mph /  6.4km/h 26mph /  41.8km/h 60% 0in /  0.0mm 306 W/m2
12:35 28.6 °F /  -1.9 °C 16.9 °F /  -8.4 °C 30.3in /  1027.4hPa ESE 8.1mph /  13km/h 13mph /  20.9km/h 61% 0in /  0.0mm 216 W/m2
12:40 28.6 °F /  -1.9 °C 16.5 °F /  -8.6 °C 30.3in /  1027.4hPa ESE 8.1mph /  13km/h 26mph /  41.8km/h 60% 0in /  0.0mm 190 W/m2
12:45 28.8 °F /  -1.8 °C 17.1 °F /  -8.3 °C 30.3in /  1027.4hPa ENE 4.9mph /  7.9km/h 11mph /  17.7km/h 61% 0in /  0.0mm 107 W/m2
12:50 28.9 °F /  -1.7 °C 17.6 °F /  -8 °C 30.3in /  1027.4hPa North 4mph /  6.4km/h 18mph /  29km/h 62% 0in /  0.0mm 193 W/m2
12:55 29.1 °F /  -1.6 °C 17.4 °F /  -8.1 °C 30.3in /  1027.4hPa ESE 4mph /  6.4km/h 13mph /  20.9km/h 61% 0in /  0.0mm 142 W/m2
13:00 28.9 °F /  -1.7 °C 17.2 °F /  -8.2 °C 30.3in /  1027.4hPa ENE 2.9mph /  4.7km/h 10mph /  16.1km/h 61% 0in /  0.0mm 123 W/m2
13:05 28.9 °F /  -1.7 °C 16.9 °F /  -8.4 °C 30.3in /  1027.4hPa ESE 8.9mph /  14.3km/h 14mph /  22.5km/h 60% 0in /  0.0mm 77 W/m2
13:10 28.8 °F /  -1.8 °C 17.1 °F /  -8.3 °C 30.3in /  1027.4hPa East 4mph /  6.4km/h 11mph /  17.7km/h 61% 0in /  0.0mm 162 W/m2
13:15 28.9 °F /  -1.7 °C 17.2 °F /  -8.2 °C 30.3in /  1027.4hPa ESE 6.9mph /  11.1km/h 12mph /  19.3km/h 61% 0in /  0.0mm 253 W/m2
13:20 28.9 °F /  -1.7 °C 17.2 °F /  -8.2 °C 30.3in /  1027.4hPa ENE 4.9mph /  7.9km/h 13mph /  20.9km/h 61% 0in /  0.0mm 193 W/m2
13:25 28.8 °F /  -1.8 °C 17.4 °F /  -8.1 °C 30.3in /  1027.4hPa SE 8.9mph /  14.3km/h 11mph /  17.7km/h 62% 0in /  0.0mm 100 W/m2
13:30 28.9 °F /  -1.7 °C 17.2 °F /  -8.2 °C 30.3in /  1027.1hPa East 6mph /  9.7km/h 17mph /  27.4km/h 61% 0in /  0.0mm 86 W/m2
13:35 28.9 °F /  -1.7 °C 17.2 °F /  -8.2 °C 30.3in /  1027.4hPa SE 2.9mph /  4.7km/h 10mph /  16.1km/h 61% 0in /  0.0mm 199 W/m2
13:40 29.1 °F /  -1.6 °C 17.8 °F /  -7.9 °C 30.3in /  1027.4hPa NNE 4.9mph /  7.9km/h 17mph /  27.4km/h 62% 0in /  0.0mm 98 W/m2
13:45 29.1 °F /  -1.6 °C 17.4 °F /  -8.1 °C 30.3in /  1027.4hPa ESE 6.9mph /  11.1km/h 13mph /  20.9km/h 61% 0in /  0.0mm 97 W/m2
13:50 29.1 °F /  -1.6 °C 17.4 °F /  -8.1 °C 30.3in /  1027.4hPa East 4mph /  6.4km/h 15mph /  24.1km/h 61% 0in /  0.0mm 127 W/m2
13:55 29.1 °F /  -1.6 °C 17.8 °F /  -7.9 °C 30.3in /  1027.1hPa ENE 0.9mph /  1.4km/h 7mph /  11.3km/h 62% 0in /  0.0mm 114 W/m2
14:00 29.3 °F /  -1.5 °C 17.6 °F /  -8 °C 30.3in /  1027.4hPa ENE 4.9mph /  7.9km/h 11mph /  17.7km/h 61% 0in /  0.0mm 137 W/m2
14:05 29.3 °F /  -1.5 °C 17.6 °F /  -8 °C 30.3in /  1027.1hPa NE 6mph /  9.7km/h 15mph /  24.1km/h 61% 0in /  0.0mm 125 W/m2
14:10 29.5 °F /  -1.4 °C 17.2 °F /  -8.2 °C 30.3in /  1027.1hPa ENE 6mph /  9.7km/h 14mph /  22.5km/h 60% 0in /  0.0mm 139 W/m2
14:15 29.7 °F /  -1.3 °C 17.4 °F /  -8.1 °C 30.3in /  1027.1hPa ENE 2mph /  3.2km/h 15mph /  24.1km/h 60% 0in /  0.0mm 155 W/m2
14:20 30 °F /  -1.1 °C 18.1 °F /  -7.7 °C 30.3in /  1027.1hPa ENE 4.9mph /  7.9km/h 8mph /  12.9km/h 61% 0in /  0.0mm 127 W/m2
14:25 29.8 °F /  -1.2 °C 16.9 °F /  -8.4 °C 30.3in /  1027.4hPa SE 4.9mph /  7.9km/h 14mph /  22.5km/h 58% 0in /  0.0mm 160 W/m2
14:30 29.8 °F /  -1.2 °C 17.2 °F /  -8.2 °C 30.3in /  1027.1hPa East 8.9mph /  14.3km/h 14mph /  22.5km/h 59% 0in /  0.0mm 125 W/m2
14:35 29.8 °F /  -1.2 °C 17.2 °F /  -8.2 °C 30.3in /  1027.1hPa NE 6mph /  9.7km/h 12mph /  19.3km/h 59% 0in /  0.0mm 109 W/m2
14:40 29.8 °F /  -1.2 °C 17.6 °F /  -8 °C 30.3in /  1027.1hPa East 2.9mph /  4.7km/h 10mph /  16.1km/h 60% 0in /  0.0mm 104 W/m2
14:45 29.8 °F /  -1.2 °C 17.6 °F /  -8 °C 30.3in /  1027.1hPa East 4mph /  6.4km/h 14mph /  22.5km/h 60% 0in /  0.0mm 104 W/m2
14:50 29.7 °F /  -1.3 °C 17.4 °F /  -8.1 °C 30.3in /  1027.1hPa East 2.9mph /  4.7km/h 10mph /  16.1km/h 60% 0in /  0.0mm 104 W/m2
14:55 29.7 °F /  -1.3 °C 17.4 °F /  -8.1 °C 30.3in /  1027.1hPa NE 8.1mph /  13km/h 12mph /  19.3km/h 60% 0in /  0.0mm 98 W/m2
15:00 29.7 °F /  -1.3 °C 17.4 °F /  -8.1 °C 30.3in /  1027.1hPa ENE 2.9mph /  4.7km/h 11mph /  17.7km/h 60% 0in /  0.0mm 98 W/m2
15:05 29.7 °F /  -1.3 °C 17.8 °F /  -7.9 °C 30.3in /  1027.1hPa ESE 2.9mph /  4.7km/h 13mph /  20.9km/h 61% 0in /  0.0mm 95 W/m2
15:10 29.8 °F /  -1.2 °C 18 °F /  -7.8 °C 30.3in /  1027.1hPa East 0.9mph /  1.4km/h 10mph /  16.1km/h 61% 0in /  0.0mm 105 W/m2
15:15 29.8 °F /  -1.2 °C 18 °F /  -7.8 °C 30.3in /  1027.1hPa ENE 10.1mph /  16.3km/h 10mph /  16.1km/h 61% 0in /  0.0mm 109 W/m2
15:20 29.8 °F /  -1.2 °C 18 °F /  -7.8 °C 30.3in /  1027.4hPa East 6.9mph /  11.1km/h 7mph /  11.3km/h 61% 0in /  0.0mm 91 W/m2
15:25 29.8 °F /  -1.2 °C 18 °F /  -7.8 °C 30.3in /  1027.4hPa ENE 4.9mph /  7.9km/h 13mph /  20.9km/h 61% 0in /  0.0mm 91 W/m2
15:30 29.8 °F /  -1.2 °C 18 °F /  -7.8 °C 30.3in /  1027.4hPa East 6mph /  9.7km/h 13mph /  20.9km/h 61% 0in /  0.0mm 105 W/m2
15:35 29.8 °F /  -1.2 °C 18.5 °F /  -7.5 °C 30.3in /  1027.4hPa East 6.9mph /  11.1km/h 9mph /  14.5km/h 62% 0in /  0.0mm 97 W/m2
15:40 29.8 °F /  -1.2 °C 18.5 °F /  -7.5 °C 30.3in /  1027.4hPa SE 8.1mph /  13km/h 9mph /  14.5km/h 62% 0in /  0.0mm 70 W/m2
15:45 29.7 °F /  -1.3 °C 17.8 °F /  -7.9 °C 30.3in /  1027.4hPa NE 6mph /  9.7km/h 13mph /  20.9km/h 61% 0in /  0.0mm 76 W/m2
15:50 29.7 °F /  -1.3 °C 18.3 °F /  -7.6 °C 30.3in /  1027.4hPa ENE 4mph /  6.4km/h 18mph /  29km/h 62% 0in /  0.0mm 76 W/m2
15:55 29.7 °F /  -1.3 °C 18.3 °F /  -7.6 °C 30.3in /  1027.4hPa East 11mph /  17.7km/h 11mph /  17.7km/h 62% 0in /  0.0mm 69 W/m2
16:00 29.7 °F /  -1.3 °C 18.3 °F /  -7.6 °C 30.3in /  1027.4hPa ENE 4.9mph /  7.9km/h 9mph /  14.5km/h 62% 0in /  0.0mm 69 W/m2
16:05 29.8 °F /  -1.2 °C 18.5 °F /  -7.5 °C 30.3in /  1027.4hPa NE 10.1mph /  16.3km/h 11mph /  17.7km/h 62% 0in /  0.0mm 60 W/m2
16:10 29.8 °F /  -1.2 °C 18.5 °F /  -7.5 °C 30.3in /  1027.4hPa NNE 6mph /  9.7km/h 12mph /  19.3km/h 62% 0in /  0.0mm 56 W/m2
16:15 29.7 °F /  -1.3 °C 18.7 °F /  -7.4 °C 30.3in /  1027.4hPa ESE 6.9mph /  11.1km/h 12mph /  19.3km/h 63% 0in /  0.0mm 51 W/m2
16:20 29.7 °F /  -1.3 °C 18.7 °F /  -7.4 °C 30.4in /  1027.8hPa NE 4mph /  6.4km/h 9mph /  14.5km/h 63% 0in /  0.0mm 47 W/m2
Juneau County Weather
Compliments of Weather Underground - 4 mb